sensor_id;sensor_type;location;lat;lon;timestamp;temperature;humidity
14252;DHT22;7210;51.502;10.722;2024-02-21T00:01:29;6.50;99.90
14252;DHT22;7210;51.502;10.722;2024-02-21T00:03:56;6.50;99.90
14252;DHT22;7210;51.502;10.722;2024-02-21T00:06:31;6.50;99.90
14252;DHT22;7210;51.502;10.722;2024-02-21T00:08:59;6.60;99.90
14252;DHT22;7210;51.502;10.722;2024-02-21T00:11:26;6.60;99.90
14252;DHT22;7210;51.502;10.722;2024-02-21T00:13:53;6.60;99.90
14252;DHT22;7210;51.502;10.722;2024-02-21T00:16:20;6.60;99.90
14252;DHT22;7210;51.502;10.722;2024-02-21T00:18:47;6.60;99.90
14252;DHT22;7210;51.502;10.722;2024-02-21T00:21:15;6.60;99.90
14252;DHT22;7210;51.502;10.722;2024-02-21T00:23:45;6.50;99.90
14252;DHT22;7210;51.502;10.722;2024-02-21T00:26:12;6.60;99.90
14252;DHT22;7210;51.502;10.722;2024-02-21T00:28:39;6.50;99.90
14252;DHT22;7210;51.502;10.722;2024-02-21T00:31:06;6.50;99.90
14252;DHT22;7210;51.502;10.722;2024-02-21T00:33:33;6.50;99.90
14252;DHT22;7210;51.502;10.722;2024-02-21T00:36:01;6.50;99.90
14252;DHT22;7210;51.502;10.722;2024-02-21T00:38:28;6.60;99.90
14252;DHT22;7210;51.502;10.722;2024-02-21T00:40:56;6.60;99.90
14252;DHT22;7210;51.502;10.722;2024-02-21T00:43:24;6.60;99.90
14252;DHT22;7210;51.502;10.722;2024-02-21T00:45:51;6.60;99.90
14252;DHT22;7210;51.502;10.722;2024-02-21T00:48:18;6.60;99.90
14252;DHT22;7210;51.502;10.722;2024-02-21T00:50:45;6.60;99.90
14252;DHT22;7210;51.502;10.722;2024-02-21T00:53:12;6.60;99.90
14252;DHT22;7210;51.502;10.722;2024-02-21T00:55:39;6.60;99.90
14252;DHT22;7210;51.502;10.722;2024-02-21T00:58:09;6.70;99.90
14252;DHT22;7210;51.502;10.722;2024-02-21T01:00:36;6.70;99.90
14252;DHT22;7210;51.502;10.722;2024-02-21T01:03:04;6.60;99.90
14252;DHT22;7210;51.502;10.722;2024-02-21T01:05:31;6.70;99.90
14252;DHT22;7210;51.502;10.722;2024-02-21T01:07:59;6.70;99.90
14252;DHT22;7210;51.502;10.722;2024-02-21T01:10:26;6.70;99.90
14252;DHT22;7210;51.502;10.722;2024-02-21T01:12:54;6.70;99.90
14252;DHT22;7210;51.502;10.722;2024-02-21T01:15:22;6.70;99.90
14252;DHT22;7210;51.502;10.722;2024-02-21T01:17:49;6.70;99.90
14252;DHT22;7210;51.502;10.722;2024-02-21T01:20:20;6.60;99.90
14252;DHT22;7210;51.502;10.722;2024-02-21T01:22:47;6.70;99.90
14252;DHT22;7210;51.502;10.722;2024-02-21T01:25:14;6.70;99.90
14252;DHT22;7210;51.502;10.722;2024-02-21T01:27:42;6.70;99.90
14252;DHT22;7210;51.502;10.722;2024-02-21T01:30:09;6.70;99.90
14252;DHT22;7210;51.502;10.722;2024-02-21T01:32:38;6.70;99.90
14252;DHT22;7210;51.502;10.722;2024-02-21T01:35:08;6.70;99.90
14252;DHT22;7210;51.502;10.722;2024-02-21T01:37:35;6.80;99.90
14252;DHT22;7210;51.502;10.722;2024-02-21T01:40:02;6.80;99.90
14252;DHT22;7210;51.502;10.722;2024-02-21T01:42:30;6.90;99.90
14252;DHT22;7210;51.502;10.722;2024-02-21T01:44:57;6.90;99.90
14252;DHT22;7210;51.502;10.722;2024-02-21T01:47:24;7.00;99.90
14252;DHT22;7210;51.502;10.722;2024-02-21T01:49:53;7.10;99.90
14252;DHT22;7210;51.502;10.722;2024-02-21T01:52:20;7.10;99.90
14252;DHT22;7210;51.502;10.722;2024-02-21T01:54:47;7.10;99.90
14252;DHT22;7210;51.502;10.722;2024-02-21T01:57:15;7.20;99.90
14252;DHT22;7210;51.502;10.722;2024-02-21T01:59:42;7.20;99.90
14252;DHT22;7210;51.502;10.722;2024-02-21T02:02:10;7.20;99.90
14252;DHT22;7210;51.502;10.722;2024-02-21T02:04:38;7.20;99.90
14252;DHT22;7210;51.502;10.722;2024-02-21T02:07:07;7.20;99.90
14252;DHT22;7210;51.502;10.722;2024-02-21T02:09:34;7.20;99.90
14252;DHT22;7210;51.502;10.722;2024-02-21T02:12:02;7.20;99.90
14252;DHT22;7210;51.502;10.722;2024-02-21T02:14:29;7.20;99.90
14252;DHT22;7210;51.502;10.722;2024-02-21T02:16:57;7.20;99.90
14252;DHT22;7210;51.502;10.722;2024-02-21T02:19:24;7.10;99.90
14252;DHT22;7210;51.502;10.722;2024-02-21T02:21:53;7.10;99.90
14252;DHT22;7210;51.502;10.722;2024-02-21T02:24:27;7.10;99.90
14252;DHT22;7210;51.502;10.722;2024-02-21T02:26:54;7.10;99.90
14252;DHT22;7210;51.502;10.722;2024-02-21T02:29:21;7.10;99.90
14252;DHT22;7210;51.502;10.722;2024-02-21T02:31:49;7.10;99.90
14252;DHT22;7210;51.502;10.722;2024-02-21T02:34:16;7.10;99.90
14252;DHT22;7210;51.502;10.722;2024-02-21T02:36:43;7.10;99.90
14252;DHT22;7210;51.502;10.722;2024-02-21T02:39:10;7.00;99.90
14252;DHT22;7210;51.502;10.722;2024-02-21T02:41:38;7.00;99.90
14252;DHT22;7210;51.502;10.722;2024-02-21T02:44:06;7.10;99.90
14252;DHT22;7210;51.502;10.722;2024-02-21T02:46:36;7.10;99.90
14252;DHT22;7210;51.502;10.722;2024-02-21T02:49:03;7.10;99.90
14252;DHT22;7210;51.502;10.722;2024-02-21T02:51:30;7.10;99.90
14252;DHT22;7210;51.502;10.722;2024-02-21T02:53:57;7.10;99.90
14252;DHT22;7210;51.502;10.722;2024-02-21T02:56:24;7.10;99.90
14252;DHT22;7210;51.502;10.722;2024-02-21T02:58:52;7.10;99.90
14252;DHT22;7210;51.502;10.722;2024-02-21T03:01:19;7.20;99.90
14252;DHT22;7210;51.502;10.722;2024-02-21T03:03:46;7.10;99.90
14252;DHT22;7210;51.502;10.722;2024-02-21T03:06:14;7.20;99.90
14252;DHT22;7210;51.502;10.722;2024-02-21T03:08:41;7.20;99.90
14252;DHT22;7210;51.502;10.722;2024-02-21T03:11:08;7.20;99.90
14252;DHT22;7210;51.502;10.722;2024-02-21T03:13:36;7.20;99.90
14252;DHT22;7210;51.502;10.722;2024-02-21T03:16:06;7.20;99.90
14252;DHT22;7210;51.502;10.722;2024-02-21T03:18:33;7.10;99.90
14252;DHT22;7210;51.502;10.722;2024-02-21T03:21:01;7.10;99.90
14252;DHT22;7210;51.502;10.722;2024-02-21T03:23:28;7.10;99.90
14252;DHT22;7210;51.502;10.722;2024-02-21T03:25:55;7.10;99.90
14252;DHT22;7210;51.502;10.722;2024-02-21T03:28:22;7.10;99.90
14252;DHT22;7210;51.502;10.722;2024-02-21T03:30:54;7.10;99.90
14252;DHT22;7210;51.502;10.722;2024-02-21T03:33:22;7.20;99.90
14252;DHT22;7210;51.502;10.722;2024-02-21T03:35:49;7.10;99.90
14252;DHT22;7210;51.502;10.722;2024-02-21T03:38:16;7.10;99.90
14252;DHT22;7210;51.502;10.722;2024-02-21T03:40:43;7.10;99.90
14252;DHT22;7210;51.502;10.722;2024-02-21T03:43:10;7.10;99.90
14252;DHT22;7210;51.502;10.722;2024-02-21T03:45:37;7.10;99.90
14252;DHT22;7210;51.502;10.722;2024-02-21T03:48:05;7.00;99.90
14252;DHT22;7210;51.502;10.722;2024-02-21T03:50:34;7.10;99.90
14252;DHT22;7210;51.502;10.722;2024-02-21T03:53:01;7.10;99.90
14252;DHT22;7210;51.502;10.722;2024-02-21T03:55:28;7.10;99.90
14252;DHT22;7210;51.502;10.722;2024-02-21T03:57:55;7.10;99.90
14252;DHT22;7210;51.502;10.722;2024-02-21T04:00:23;7.20;99.90
14252;DHT22;7210;51.502;10.722;2024-02-21T04:02:50;7.30;99.90
14252;DHT22;7210;51.502;10.722;2024-02-21T04:05:17;7.30;99.90
14252;DHT22;7210;51.502;10.722;2024-02-21T04:07:46;7.20;99.90
14252;DHT22;7210;51.502;10.722;2024-02-21T04:10:18;7.20;99.90
14252;DHT22;7210;51.502;10.722;2024-02-21T04:12:45;7.20;99.90
14252;DHT22;7210;51.502;10.722;2024-02-21T04:15:18;7.20;99.90
14252;DHT22;7210;51.502;10.722;2024-02-21T04:17:45;7.20;99.90
14252;DHT22;7210;51.502;10.722;2024-02-21T04:20:14;7.20;99.90
14252;DHT22;7210;51.502;10.722;2024-02-21T04:22:43;7.20;99.90
14252;DHT22;7210;51.502;10.722;2024-02-21T04:25:12;7.10;99.90
14252;DHT22;7210;51.502;10.722;2024-02-21T04:27:40;7.10;99.90
14252;DHT22;7210;51.502;10.722;2024-02-21T04:30:08;7.10;99.90
14252;DHT22;7210;51.502;10.722;2024-02-21T04:32:36;7.10;99.90
14252;DHT22;7210;51.502;10.722;2024-02-21T04:35:03;7.10;99.90
14252;DHT22;7210;51.502;10.722;2024-02-21T04:37:32;7.10;99.90
14252;DHT22;7210;51.502;10.722;2024-02-21T04:39:59;7.00;99.90
14252;DHT22;7210;51.502;10.722;2024-02-21T04:42:28;7.00;99.90
14252;DHT22;7210;51.502;10.722;2024-02-21T04:44:55;7.00;99.90
14252;DHT22;7210;51.502;10.722;2024-02-21T04:47:22;7.00;99.90
14252;DHT22;7210;51.502;10.722;2024-02-21T04:49:50;7.00;99.90
14252;DHT22;7210;51.502;10.722;2024-02-21T04:52:17;7.00;99.90
14252;DHT22;7210;51.502;10.722;2024-02-21T04:54:44;7.00;99.90
14252;DHT22;7210;51.502;10.722;2024-02-21T04:57:12;7.00;99.90
14252;DHT22;7210;51.502;10.722;2024-02-21T04:59:44;7.00;99.90
14252;DHT22;7210;51.502;10.722;2024-02-21T05:02:11;6.90;99.90
14252;DHT22;7210;51.502;10.722;2024-02-21T05:04:38;7.00;99.90
14252;DHT22;7210;51.502;10.722;2024-02-21T05:07:07;7.00;99.90
14252;DHT22;7210;51.502;10.722;2024-02-21T05:09:36;7.00;99.90
14252;DHT22;7210;51.502;10.722;2024-02-21T05:12:04;7.00;99.90
14252;DHT22;7210;51.502;10.722;2024-02-21T05:14:31;7.00;99.90
14252;DHT22;7210;51.502;10.722;2024-02-21T05:17:00;7.00;99.90
14252;DHT22;7210;51.502;10.722;2024-02-21T05:19:27;7.00;99.90
14252;DHT22;7210;51.502;10.722;2024-02-21T05:21:54;7.10;99.90
14252;DHT22;7210;51.502;10.722;2024-02-21T05:24:21;7.10;99.90
14252;DHT22;7210;51.502;10.722;2024-02-21T05:26:54;7.10;99.90
14252;DHT22;7210;51.502;10.722;2024-02-21T05:29:21;7.10;99.90
14252;DHT22;7210;51.502;10.722;2024-02-21T05:31:57;7.20;99.90
14252;DHT22;7210;51.502;10.722;2024-02-21T05:34:26;7.30;99.90
14252;DHT22;7210;51.502;10.722;2024-02-21T05:36:53;7.30;99.90
14252;DHT22;7210;51.502;10.722;2024-02-21T05:39:24;7.30;99.90
14252;DHT22;7210;51.502;10.722;2024-02-21T05:41:51;7.30;99.90
14252;DHT22;7210;51.502;10.722;2024-02-21T05:44:18;7.30;99.90
14252;DHT22;7210;51.502;10.722;2024-02-21T05:46:47;7.30;99.90
14252;DHT22;7210;51.502;10.722;2024-02-21T05:49:14;7.30;99.90
14252;DHT22;7210;51.502;10.722;2024-02-21T05:51:43;7.30;99.90
14252;DHT22;7210;51.502;10.722;2024-02-21T05:54:10;7.30;99.90
14252;DHT22;7210;51.502;10.722;2024-02-21T05:56:37;7.30;99.90
14252;DHT22;7210;51.502;10.722;2024-02-21T05:59:04;7.30;99.90
14252;DHT22;7210;51.502;10.722;2024-02-21T06:01:32;7.30;99.90
14252;DHT22;7210;51.502;10.722;2024-02-21T06:03:59;7.40;99.90
14252;DHT22;7210;51.502;10.722;2024-02-21T06:06:26;7.40;99.90
14252;DHT22;7210;51.502;10.722;2024-02-21T06:08:54;7.40;99.90
14252;DHT22;7210;51.502;10.722;2024-02-21T06:11:21;7.50;99.90
14252;DHT22;7210;51.502;10.722;2024-02-21T06:13:48;7.50;99.90
14252;DHT22;7210;51.502;10.722;2024-02-21T06:16:15;7.50;99.90
14252;DHT22;7210;51.502;10.722;2024-02-21T06:18:43;7.50;99.90
14252;DHT22;7210;51.502;10.722;2024-02-21T06:21:12;7.50;99.90
14252;DHT22;7210;51.502;10.722;2024-02-21T06:23:39;7.40;99.90
14252;DHT22;7210;51.502;10.722;2024-02-21T06:26:07;7.40;99.90
14252;DHT22;7210;51.502;10.722;2024-02-21T06:28:35;7.50;99.90
14252;DHT22;7210;51.502;10.722;2024-02-21T06:31:02;7.50;99.90
14252;DHT22;7210;51.502;10.722;2024-02-21T06:33:30;7.50;99.90
14252;DHT22;7210;51.502;10.722;2024-02-21T06:35:57;7.50;99.90
14252;DHT22;7210;51.502;10.722;2024-02-21T06:38:24;7.50;99.90
14252;DHT22;7210;51.502;10.722;2024-02-21T06:40:51;7.50;99.90
14252;DHT22;7210;51.502;10.722;2024-02-21T06:43:25;7.50;99.90
14252;DHT22;7210;51.502;10.722;2024-02-21T06:45:53;7.50;99.90
14252;DHT22;7210;51.502;10.722;2024-02-21T06:48:20;7.50;99.90
14252;DHT22;7210;51.502;10.722;2024-02-21T06:50:48;7.50;99.90
14252;DHT22;7210;51.502;10.722;2024-02-21T06:53:15;7.50;99.90
14252;DHT22;7210;51.502;10.722;2024-02-21T06:55:42;7.50;99.90
14252;DHT22;7210;51.502;10.722;2024-02-21T06:58:12;7.60;99.90
14252;DHT22;7210;51.502;10.722;2024-02-21T07:00:42;7.60;99.90
14252;DHT22;7210;51.502;10.722;2024-02-21T07:03:10;7.60;99.90
14252;DHT22;7210;51.502;10.722;2024-02-21T07:05:37;7.60;99.90
14252;DHT22;7210;51.502;10.722;2024-02-21T07:08:05;7.50;99.90
14252;DHT22;7210;51.502;10.722;2024-02-21T07:10:32;7.60;99.90
14252;DHT22;7210;51.502;10.722;2024-02-21T07:12:59;7.50;99.90
14252;DHT22;7210;51.502;10.722;2024-02-21T07:15:30;7.60;99.90
14252;DHT22;7210;51.502;10.722;2024-02-21T07:17:59;7.60;99.90
14252;DHT22;7210;51.502;10.722;2024-02-21T07:20:27;7.60;99.90
14252;DHT22;7210;51.502;10.722;2024-02-21T07:22:54;7.60;99.90
14252;DHT22;7210;51.502;10.722;2024-02-21T07:25:22;7.50;99.90
14252;DHT22;7210;51.502;10.722;2024-02-21T07:27:54;7.60;99.90
14252;DHT22;7210;51.502;10.722;2024-02-21T07:30:21;7.60;99.90
14252;DHT22;7210;51.502;10.722;2024-02-21T07:32:49;7.60;99.90
14252;DHT22;7210;51.502;10.722;2024-02-21T07:35:18;7.70;99.90
14252;DHT22;7210;51.502;10.722;2024-02-21T07:37:45;7.70;99.90
14252;DHT22;7210;51.502;10.722;2024-02-21T07:40:18;7.80;99.90
14252;DHT22;7210;51.502;10.722;2024-02-21T07:42:45;7.80;99.90
14252;DHT22;7210;51.502;10.722;2024-02-21T07:45:18;7.80;99.90
14252;DHT22;7210;51.502;10.722;2024-02-21T07:47:47;7.80;99.90
14252;DHT22;7210;51.502;10.722;2024-02-21T07:50:15;7.80;99.90
14252;DHT22;7210;51.502;10.722;2024-02-21T07:52:44;7.90;99.90
14252;DHT22;7210;51.502;10.722;2024-02-21T07:55:11;7.90;99.90
14252;DHT22;7210;51.502;10.722;2024-02-21T07:57:38;7.90;99.90
14252;DHT22;7210;51.502;10.722;2024-02-21T08:00:06;7.80;99.90
14252;DHT22;7210;51.502;10.722;2024-02-21T08:02:43;7.80;99.90
14252;DHT22;7210;51.502;10.722;2024-02-21T08:05:12;7.70;99.90
14252;DHT22;7210;51.502;10.722;2024-02-21T08:07:43;7.80;99.90
14252;DHT22;7210;51.502;10.722;2024-02-21T08:10:10;7.80;99.90
14252;DHT22;7210;51.502;10.722;2024-02-21T08:12:38;7.80;99.90
14252;DHT22;7210;51.502;10.722;2024-02-21T08:15:06;7.80;99.90
14252;DHT22;7210;51.502;10.722;2024-02-21T08:17:34;7.80;99.90
14252;DHT22;7210;51.502;10.722;2024-02-21T08:20:01;7.80;99.90
14252;DHT22;7210;51.502;10.722;2024-02-21T08:22:30;7.80;99.90
14252;DHT22;7210;51.502;10.722;2024-02-21T08:24:58;7.90;99.90
14252;DHT22;7210;51.502;10.722;2024-02-21T08:27:26;7.90;99.90
14252;DHT22;7210;51.502;10.722;2024-02-21T08:29:53;7.90;99.90
14252;DHT22;7210;51.502;10.722;2024-02-21T08:32:24;7.90;99.90
14252;DHT22;7210;51.502;10.722;2024-02-21T08:34:51;8.00;99.90
14252;DHT22;7210;51.502;10.722;2024-02-21T08:37:19;8.10;99.90
14252;DHT22;7210;51.502;10.722;2024-02-21T08:39:47;8.20;99.90
14252;DHT22;7210;51.502;10.722;2024-02-21T08:42:16;8.30;99.90
14252;DHT22;7210;51.502;10.722;2024-02-21T08:44:44;8.40;99.90
14252;DHT22;7210;51.502;10.722;2024-02-21T08:47:11;8.50;99.90
14252;DHT22;7210;51.502;10.722;2024-02-21T08:49:38;8.60;99.90
14252;DHT22;7210;51.502;10.722;2024-02-21T08:52:06;8.70;99.90
14252;DHT22;7210;51.502;10.722;2024-02-21T08:54:33;8.80;99.90
14252;DHT22;7210;51.502;10.722;2024-02-21T08:57:00;8.90;99.90
14252;DHT22;7210;51.502;10.722;2024-02-21T08:59:30;9.00;99.90
14252;DHT22;7210;51.502;10.722;2024-02-21T09:01:57;9.10;99.90
14252;DHT22;7210;51.502;10.722;2024-02-21T09:04:24;9.00;99.90
14252;DHT22;7210;51.502;10.722;2024-02-21T09:06:52;8.90;99.90
14252;DHT22;7210;51.502;10.722;2024-02-21T09:09:19;8.90;99.90
14252;DHT22;7210;51.502;10.722;2024-02-21T09:11:48;9.10;99.90
14252;DHT22;7210;51.502;10.722;2024-02-21T09:14:15;9.10;99.90
14252;DHT22;7210;51.502;10.722;2024-02-21T09:16:43;9.10;99.90
14252;DHT22;7210;51.502;10.722;2024-02-21T09:19:10;9.10;99.90
14252;DHT22;7210;51.502;10.722;2024-02-21T09:21:42;9.20;99.90
14252;DHT22;7210;51.502;10.722;2024-02-21T09:24:12;9.20;99.90
14252;DHT22;7210;51.502;10.722;2024-02-21T09:26:39;9.10;99.90
14252;DHT22;7210;51.502;10.722;2024-02-21T09:29:06;9.10;99.90
14252;DHT22;7210;51.502;10.722;2024-02-21T09:31:33;9.20;99.90
14252;DHT22;7210;51.502;10.722;2024-02-21T09:34:02;9.20;99.90
14252;DHT22;7210;51.502;10.722;2024-02-21T09:36:29;9.30;99.90
14252;DHT22;7210;51.502;10.722;2024-02-21T09:38:56;9.30;99.90
14252;DHT22;7210;51.502;10.722;2024-02-21T09:41:26;9.40;99.90
14252;DHT22;7210;51.502;10.722;2024-02-21T09:43:54;9.40;99.90
14252;DHT22;7210;51.502;10.722;2024-02-21T09:46:24;9.40;99.90
14252;DHT22;7210;51.502;10.722;2024-02-21T09:49:13;9.40;99.90
14252;DHT22;7210;51.502;10.722;2024-02-21T09:51:50;9.60;99.90
14252;DHT22;7210;51.502;10.722;2024-02-21T09:54:20;9.70;99.90
14252;DHT22;7210;51.502;10.722;2024-02-21T09:56:48;9.80;99.90
14252;DHT22;7210;51.502;10.722;2024-02-21T09:59:16;9.80;99.90
14252;DHT22;7210;51.502;10.722;2024-02-21T10:01:44;10.00;99.90
14252;DHT22;7210;51.502;10.722;2024-02-21T10:04:14;9.90;99.90
14252;DHT22;7210;51.502;10.722;2024-02-21T10:06:41;10.00;99.90
14252;DHT22;7210;51.502;10.722;2024-02-21T10:09:08;10.00;99.90
14252;DHT22;7210;51.502;10.722;2024-02-21T10:11:35;10.00;99.90
14252;DHT22;7210;51.502;10.722;2024-02-21T10:14:06;10.10;99.90
14252;DHT22;7210;51.502;10.722;2024-02-21T10:16:34;10.20;99.90
14252;DHT22;7210;51.502;10.722;2024-02-21T10:19:02;10.30;99.90
14252;DHT22;7210;51.502;10.722;2024-02-21T10:21:31;10.50;99.90
14252;DHT22;7210;51.502;10.722;2024-02-21T10:23:58;10.50;99.90
14252;DHT22;7210;51.502;10.722;2024-02-21T10:26:25;10.50;99.90
14252;DHT22;7210;51.502;10.722;2024-02-21T10:28:52;10.40;99.90
14252;DHT22;7210;51.502;10.722;2024-02-21T10:31:24;10.50;99.90
14252;DHT22;7210;51.502;10.722;2024-02-21T10:33:56;10.70;99.90
14252;DHT22;7210;51.502;10.722;2024-02-21T10:36:24;10.60;99.90
14252;DHT22;7210;51.502;10.722;2024-02-21T10:38:53;10.70;99.90
14252;DHT22;7210;51.502;10.722;2024-02-21T10:41:31;10.60;99.90
14252;DHT22;7210;51.502;10.722;2024-02-21T10:44:00;10.70;99.90
14252;DHT22;7210;51.502;10.722;2024-02-21T10:46:32;10.70;99.90
14252;DHT22;7210;51.502;10.722;2024-02-21T10:49:10;10.80;99.90
14252;DHT22;7210;51.502;10.722;2024-02-21T10:51:43;10.80;99.90
14252;DHT22;7210;51.502;10.722;2024-02-21T10:54:24;10.70;99.90
14252;DHT22;7210;51.502;10.722;2024-02-21T10:57:02;10.70;99.90
14252;DHT22;7210;51.502;10.722;2024-02-21T10:59:32;10.70;99.90
14252;DHT22;7210;51.502;10.722;2024-02-21T11:02:01;10.80;99.90
14252;DHT22;7210;51.502;10.722;2024-02-21T11:04:29;10.90;99.90
14252;DHT22;7210;51.502;10.722;2024-02-21T11:07:03;11.10;99.90
14252;DHT22;7210;51.502;10.722;2024-02-21T11:09:37;11.20;99.90
14252;DHT22;7210;51.502;10.722;2024-02-21T11:12:05;11.30;99.90
14252;DHT22;7210;51.502;10.722;2024-02-21T11:14:34;11.40;99.90
14252;DHT22;7210;51.502;10.722;2024-02-21T11:17:03;11.60;99.90
14252;DHT22;7210;51.502;10.722;2024-02-21T11:19:41;11.40;99.90
14252;DHT22;7210;51.502;10.722;2024-02-21T11:22:14;11.30;99.90
14252;DHT22;7210;51.502;10.722;2024-02-21T11:24:50;11.20;99.90
14252;DHT22;7210;51.502;10.722;2024-02-21T11:27:19;11.10;99.90
14252;DHT22;7210;51.502;10.722;2024-02-21T11:29:48;11.10;99.90
14252;DHT22;7210;51.502;10.722;2024-02-21T11:32:20;11.10;99.90
14252;DHT22;7210;51.502;10.722;2024-02-21T11:34:55;10.90;99.90
14252;DHT22;7210;51.502;10.722;2024-02-21T11:37:31;11.00;99.90
14252;DHT22;7210;51.502;10.722;2024-02-21T11:40:01;10.90;99.90
14252;DHT22;7210;51.502;10.722;2024-02-21T11:42:29;10.90;99.90
14252;DHT22;7210;51.502;10.722;2024-02-21T11:44:57;10.90;99.90
14252;DHT22;7210;51.502;10.722;2024-02-21T11:47:24;11.00;99.90
14252;DHT22;7210;51.502;10.722;2024-02-21T11:49:52;11.00;99.90
14252;DHT22;7210;51.502;10.722;2024-02-21T11:52:22;10.90;99.90
14252;DHT22;7210;51.502;10.722;2024-02-21T11:54:50;11.10;99.90
14252;DHT22;7210;51.502;10.722;2024-02-21T11:57:20;11.00;99.90
14252;DHT22;7210;51.502;10.722;2024-02-21T11:59:47;10.80;99.90
14252;DHT22;7210;51.502;10.722;2024-02-21T12:02:16;10.70;99.90
14252;DHT22;7210;51.502;10.722;2024-02-21T12:04:44;10.60;99.90
14252;DHT22;7210;51.502;10.722;2024-02-21T12:07:12;10.60;99.90
14252;DHT22;7210;51.502;10.722;2024-02-21T12:09:41;10.60;99.90
14252;DHT22;7210;51.502;10.722;2024-02-21T12:12:09;10.80;99.90
14252;DHT22;7210;51.502;10.722;2024-02-21T12:14:37;10.80;99.90
14252;DHT22;7210;51.502;10.722;2024-02-21T12:17:04;10.60;99.90
14252;DHT22;7210;51.502;10.722;2024-02-21T12:19:33;10.70;99.90
14252;DHT22;7210;51.502;10.722;2024-02-21T12:22:00;10.70;99.90
14252;DHT22;7210;51.502;10.722;2024-02-21T12:24:31;10.70;99.90
14252;DHT22;7210;51.502;10.722;2024-02-21T12:27:00;10.70;99.90
14252;DHT22;7210;51.502;10.722;2024-02-21T12:29:30;10.90;99.90
14252;DHT22;7210;51.502;10.722;2024-02-21T12:32:01;11.00;99.90
14252;DHT22;7210;51.502;10.722;2024-02-21T12:34:29;11.10;99.90
14252;DHT22;7210;51.502;10.722;2024-02-21T12:36:58;11.30;99.90
14252;DHT22;7210;51.502;10.722;2024-02-21T12:39:26;11.20;99.90
14252;DHT22;7210;51.502;10.722;2024-02-21T12:41:54;11.10;99.90
14252;DHT22;7210;51.502;10.722;2024-02-21T12:44:22;10.90;99.90
14252;DHT22;7210;51.502;10.722;2024-02-21T12:46:49;10.80;99.90
14252;DHT22;7210;51.502;10.722;2024-02-21T12:49:20;10.60;99.90
14252;DHT22;7210;51.502;10.722;2024-02-21T12:51:47;10.60;99.90
14252;DHT22;7210;51.502;10.722;2024-02-21T12:54:18;10.60;99.90
14252;DHT22;7210;51.502;10.722;2024-02-21T12:56:45;10.50;99.90
14252;DHT22;7210;51.502;10.722;2024-02-21T12:59:12;10.60;99.90
14252;DHT22;7210;51.502;10.722;2024-02-21T13:01:42;10.80;99.90
14252;DHT22;7210;51.502;10.722;2024-02-21T13:04:09;10.90;99.90
14252;DHT22;7210;51.502;10.722;2024-02-21T13:06:38;10.70;99.90
14252;DHT22;7210;51.502;10.722;2024-02-21T13:09:05;10.80;99.90
14252;DHT22;7210;51.502;10.722;2024-02-21T13:11:36;10.70;99.90
14252;DHT22;7210;51.502;10.722;2024-02-21T13:14:03;10.60;99.90
14252;DHT22;7210;51.502;10.722;2024-02-21T13:16:31;10.40;99.90
14252;DHT22;7210;51.502;10.722;2024-02-21T13:18:59;10.30;99.90
14252;DHT22;7210;51.502;10.722;2024-02-21T13:21:27;10.30;99.90
14252;DHT22;7210;51.502;10.722;2024-02-21T13:23:55;10.30;99.90
14252;DHT22;7210;51.502;10.722;2024-02-21T13:26:22;10.40;99.90
14252;DHT22;7210;51.502;10.722;2024-02-21T13:28:49;10.40;99.90
14252;DHT22;7210;51.502;10.722;2024-02-21T13:31:16;10.40;99.90
14252;DHT22;7210;51.502;10.722;2024-02-21T13:33:44;10.50;99.90
14252;DHT22;7210;51.502;10.722;2024-02-21T13:36:11;10.50;99.90
14252;DHT22;7210;51.502;10.722;2024-02-21T13:38:38;10.50;99.90
14252;DHT22;7210;51.502;10.722;2024-02-21T13:41:06;10.40;99.90
14252;DHT22;7210;51.502;10.722;2024-02-21T13:43:33;10.40;99.90
14252;DHT22;7210;51.502;10.722;2024-02-21T13:46:02;10.40;99.90
14252;DHT22;7210;51.502;10.722;2024-02-21T13:48:30;10.50;99.90
14252;DHT22;7210;51.502;10.722;2024-02-21T13:50:59;10.50;99.90
14252;DHT22;7210;51.502;10.722;2024-02-21T13:53:27;10.40;99.90
14252;DHT22;7210;51.502;10.722;2024-02-21T13:55:54;10.50;99.90
14252;DHT22;7210;51.502;10.722;2024-02-21T13:58:23;10.50;99.90
14252;DHT22;7210;51.502;10.722;2024-02-21T14:00:51;10.40;99.90
14252;DHT22;7210;51.502;10.722;2024-02-21T14:03:19;10.30;99.90
14252;DHT22;7210;51.502;10.722;2024-02-21T14:05:46;10.40;99.90
14252;DHT22;7210;51.502;10.722;2024-02-21T14:08:14;10.30;99.90
14252;DHT22;7210;51.502;10.722;2024-02-21T14:10:41;10.20;99.90
14252;DHT22;7210;51.502;10.722;2024-02-21T14:13:08;10.20;99.90
14252;DHT22;7210;51.502;10.722;2024-02-21T14:15:37;10.30;99.90
14252;DHT22;7210;51.502;10.722;2024-02-21T14:18:06;10.40;99.90
14252;DHT22;7210;51.502;10.722;2024-02-21T14:20:35;10.30;99.90
14252;DHT22;7210;51.502;10.722;2024-02-21T14:23:02;10.20;99.90
14252;DHT22;7210;51.502;10.722;2024-02-21T14:25:30;10.10;99.90
14252;DHT22;7210;51.502;10.722;2024-02-21T14:27:57;10.10;99.90
14252;DHT22;7210;51.502;10.722;2024-02-21T14:30:26;10.20;99.90
14252;DHT22;7210;51.502;10.722;2024-02-21T14:32:54;10.10;99.90
14252;DHT22;7210;51.502;10.722;2024-02-21T14:35:22;10.00;99.90
14252;DHT22;7210;51.502;10.722;2024-02-21T14:37:49;10.00;99.90
14252;DHT22;7210;51.502;10.722;2024-02-21T14:40:18;10.10;99.90
14252;DHT22;7210;51.502;10.722;2024-02-21T14:42:46;10.00;99.90
14252;DHT22;7210;51.502;10.722;2024-02-21T14:45:13;10.00;99.90
14252;DHT22;7210;51.502;10.722;2024-02-21T14:47:40;10.00;99.90
14252;DHT22;7210;51.502;10.722;2024-02-21T14:50:10;9.90;99.90
14252;DHT22;7210;51.502;10.722;2024-02-21T14:52:37;9.90;99.90
14252;DHT22;7210;51.502;10.722;2024-02-21T14:55:05;9.90;99.90
14252;DHT22;7210;51.502;10.722;2024-02-21T14:57:36;9.80;99.90
14252;DHT22;7210;51.502;10.722;2024-02-21T15:00:06;9.70;99.90
14252;DHT22;7210;51.502;10.722;2024-02-21T15:02:42;9.70;99.90
14252;DHT22;7210;51.502;10.722;2024-02-21T15:05:10;9.60;99.90
14252;DHT22;7210;51.502;10.722;2024-02-21T15:07:39;9.70;99.90
14252;DHT22;7210;51.502;10.722;2024-02-21T15:10:08;9.70;99.90
14252;DHT22;7210;51.502;10.722;2024-02-21T15:12:35;9.60;99.90
14252;DHT22;7210;51.502;10.722;2024-02-21T15:15:02;9.70;99.90
14252;DHT22;7210;51.502;10.722;2024-02-21T15:17:30;9.70;99.90
14252;DHT22;7210;51.502;10.722;2024-02-21T15:20:00;9.60;99.90
14252;DHT22;7210;51.502;10.722;2024-02-21T15:22:31;9.60;99.90
14252;DHT22;7210;51.502;10.722;2024-02-21T15:24:58;9.60;99.90
14252;DHT22;7210;51.502;10.722;2024-02-21T15:27:26;9.60;99.90
14252;DHT22;7210;51.502;10.722;2024-02-21T15:29:54;9.50;99.90
14252;DHT22;7210;51.502;10.722;2024-02-21T15:32:22;9.60;99.90
14252;DHT22;7210;51.502;10.722;2024-02-21T15:34:50;9.60;99.90
14252;DHT22;7210;51.502;10.722;2024-02-21T15:37:17;9.60;99.90
14252;DHT22;7210;51.502;10.722;2024-02-21T15:39:46;9.60;99.90
14252;DHT22;7210;51.502;10.722;2024-02-21T15:42:14;9.50;99.90
14252;DHT22;7210;51.502;10.722;2024-02-21T15:44:41;9.50;99.90
14252;DHT22;7210;51.502;10.722;2024-02-21T15:47:08;9.50;99.90
14252;DHT22;7210;51.502;10.722;2024-02-21T15:49:36;9.50;99.90